Archival Weather

Republic

Farmingdale, New York (KFRG)

Report from: Wednesday, February 21, 2024 3:53 AM EST
Current time: Monday, June 24, 2024 4:58 AM EDT

Current weather – Weather history – Daily summaries
Weather forecast

Temperature-4.4°C (24.1°F)
Wind chill-7.7°C (18.2°F)
Dew point-8.3°C (17.1°F)
Winds 4 kts (2.1 m/s, 4.6 mph) North (360°)
Visibility9 mi. (14.5 km)
Clouds Sky clear
Altimeter30.48 in.Hg (1032 mB)
Relative humidity74 %
Density altitude-2,979 ft. (-908 m)
Sea-level pressure103.2 kPa (1032 mB, 30.48 in.Hg)
Remarks Fully automated report
Automated weather observing station without precipitation discriminator
Freezing rain sensor not operating
Pressure falling more slowly
Flight conditions Visual Meteorological Conditions
Raw dataKFRG 210853Z AUTO 36004KT 9SM CLR M04/M08 A3048 RMK AO1 SLP320 T10441083 56008 FZRANO
An error has occurred. This application may no longer respond until reloaded. Reload 🗙